Terminal Aerodrome Forecast
Issued by NWS

Home | Current Version | Previous Version | Text Only | Print | Product List | Glossary On
Versions: 1 2 3 4 5 6 7 8 9 10 11 12 13
000
FTPA31 PHFO 181153 AAA
TAFHJR
TAF AMD
PHJR 181153Z 1812/1912 06007KT P6SM FEW025 FEW050
     FM181900 10009KT P6SM FEW030 SCT050
     FM190200 06008KT P6SM FEW030 SCT050=

USA.gov is the U.S. government's official web portal to all federal, state and local government web resources and services.